createdAt,value
2023-05-26T00:00:25.532Z,29.88
2023-05-26T00:02:52.893Z,19.98
2023-05-26T00:05:21.460Z,28.58
2023-05-26T00:07:49.006Z,20.00
2023-05-26T00:10:16.226Z,19.20
2023-05-26T00:12:43.444Z,24.55
2023-05-26T00:15:10.900Z,17.33
2023-05-26T00:17:38.291Z,25.88
2023-05-26T00:20:08.770Z,22.98
2023-05-26T00:22:36.337Z,21.80
2023-05-26T00:25:04.470Z,24.95
2023-05-26T00:27:31.822Z,21.25
2023-05-26T00:29:59.338Z,24.55
2023-05-26T00:32:26.953Z,20.35
2023-05-26T00:34:54.262Z,21.17
2023-05-26T00:37:23.429Z,17.50
2023-05-26T00:39:50.638Z,18.83
2023-05-26T00:42:18.577Z,21.33
2023-05-26T00:44:45.756Z,22.05
2023-05-26T00:47:12.984Z,24.02
2023-05-26T00:49:40.268Z,19.00
2023-05-26T00:52:08.196Z,22.40
2023-05-26T00:54:36.267Z,25.00
2023-05-26T00:57:04.763Z,19.73
2023-05-26T00:59:32.448Z,26.42
2023-05-26T01:02:01.090Z,24.55
2023-05-26T01:04:28.263Z,24.67
2023-05-26T01:06:56.481Z,26.00
2023-05-26T01:09:24.080Z,17.58
2023-05-26T01:11:54.210Z,26.35
2023-05-26T01:14:32.257Z,24.02
2023-05-26T01:17:08.568Z,22.45
2023-05-26T01:19:53.386Z,23.98
2023-05-26T01:22:23.867Z,20.77
2023-05-26T01:25:07.665Z,26.08
2023-05-26T01:28:04.029Z,25.25
2023-05-26T01:30:32.623Z,35.75
2023-05-26T01:32:59.906Z,20.50
2023-05-26T01:35:27.210Z,24.45
2023-05-26T01:37:55.160Z,28.75
2023-05-26T01:40:22.966Z,31.77
2023-05-26T01:43:03.194Z,24.75
2023-05-26T01:45:43.284Z,24.08
2023-05-26T01:48:11.293Z,24.52
2023-05-26T01:50:48.782Z,25.38
2023-05-26T01:53:19.317Z,21.30
2023-05-26T01:55:47.315Z,26.05
2023-05-26T01:58:15.330Z,26.90
2023-05-26T02:00:48.907Z,19.10
2023-05-26T02:03:16.911Z,19.75
2023-05-26T02:05:44.654Z,22.38
2023-05-26T02:08:12.509Z,24.55
2023-05-26T02:10:40.422Z,19.15
2023-05-26T02:13:08.003Z,23.15
2023-05-26T02:15:35.581Z,37.33
2023-05-26T02:18:04.188Z,25.95
2023-05-26T02:20:31.808Z,21.55
2023-05-26T02:22:59.059Z,25.30
2023-05-26T02:25:26.260Z,21.55
2023-05-26T02:27:53.525Z,23.52
2023-05-26T02:30:21.262Z,26.33
2023-05-26T02:32:48.737Z,23.98
2023-05-26T02:35:15.953Z,21.98
2023-05-26T02:37:43.197Z,28.40
2023-05-26T02:40:11.124Z,25.90
2023-05-26T02:42:38.372Z,24.35
2023-05-26T02:45:06.190Z,28.77
2023-05-26T02:47:33.430Z,25.88
2023-05-26T02:50:00.717Z,27.15
2023-05-26T02:52:28.326Z,22.77
2023-05-26T02:54:55.593Z,27.65
2023-05-26T02:57:23.454Z,24.40
2023-05-26T02:59:50.586Z,27.80
2023-05-26T03:02:17.844Z,26.10
2023-05-26T03:04:45.026Z,24.10
2023-05-26T03:07:12.198Z,25.52
2023-05-26T03:09:39.428Z,26.35
2023-05-26T03:12:08.040Z,30.55
2023-05-26T03:14:35.429Z,25.17
2023-05-26T03:17:02.826Z,24.33
2023-05-26T03:19:30.151Z,40.70
2023-05-26T03:22:37.598Z,34.35
2023-05-26T03:24:44.732Z,26.45
2023-05-26T03:27:11.898Z,30.77
2023-05-26T03:29:39.061Z,19.55
2023-05-26T03:32:06.406Z,34.53
2023-05-26T03:34:34.205Z,29.08
2023-05-26T03:37:02.079Z,22.92
2023-05-26T03:39:29.238Z,26.42
2023-05-26T03:41:56.492Z,30.10
2023-05-26T03:44:24.321Z,31.02
2023-05-26T03:46:51.629Z,30.70
2023-05-26T03:49:20.925Z,21.27
2023-05-26T03:51:48.205Z,25.17
2023-05-26T03:54:15.351Z,24.88
2023-05-26T03:56:42.591Z,26.70
2023-05-26T03:59:10.117Z,32.70
2023-05-26T04:01:38.274Z,30.85
2023-05-26T04:04:05.700Z,26.77
2023-05-26T04:06:32.982Z,28.13
2023-05-26T04:09:01.695Z,27.08
2023-05-26T04:11:28.959Z,23.65
2023-05-26T04:13:56.270Z,24.10
2023-05-26T04:16:23.505Z,24.75
2023-05-26T04:18:50.858Z,25.90
2023-05-26T04:21:18.058Z,29.17
2023-05-26T04:23:48.491Z,29.65
2023-05-26T04:26:17.383Z,29.80
2023-05-26T04:28:45.243Z,21.90
2023-05-26T04:31:17.886Z,27.27
2023-05-26T04:33:46.074Z,31.20
2023-05-26T04:36:17.560Z,27.25
2023-05-26T04:38:48.941Z,28.30
2023-05-26T04:41:16.464Z,26.17
2023-05-26T04:43:44.571Z,32.22
2023-05-26T04:46:12.471Z,29.85
2023-05-26T04:48:59.777Z,24.48
2023-05-26T04:51:27.293Z,31.02
2023-05-26T04:53:54.413Z,28.38
2023-05-26T04:56:22.861Z,33.58
2023-05-26T04:58:50.082Z,24.40
2023-05-26T05:01:18.738Z,31.73
2023-05-26T05:03:46.165Z,23.42
2023-05-26T05:06:13.430Z,22.48
2023-05-26T05:08:40.576Z,32.65
2023-05-26T05:11:08.656Z,24.95
2023-05-26T05:13:35.832Z,27.55
2023-05-26T05:16:03.091Z,30.27
2023-05-26T05:18:30.263Z,24.70
2023-05-26T05:20:57.682Z,30.00
2023-05-26T05:23:25.141Z,27.90
2023-05-26T05:25:53.813Z,24.48
2023-05-26T05:28:20.965Z,32.92
2023-05-26T05:30:48.345Z,33.10
2023-05-26T05:33:15.870Z,24.67
2023-05-26T05:35:43.306Z,26.25
2023-05-26T05:38:10.687Z,25.38
2023-05-26T05:40:37.952Z,25.77
2023-05-26T05:43:05.458Z,21.88
2023-05-26T05:45:32.817Z,25.55
2023-05-26T05:48:00.218Z,49.38
2023-05-26T05:50:27.452Z,51.83
2023-05-26T05:52:54.632Z,36.95
2023-05-26T05:55:21.845Z,39.35
2023-05-26T05:57:49.767Z,30.88
2023-05-26T06:00:17.380Z,43.38
2023-05-26T06:02:44.703Z,29.20
2023-05-26T06:05:14.314Z,35.45
2023-05-26T06:07:41.497Z,29.10
2023-05-26T06:10:09.284Z,31.73
2023-05-26T06:12:36.462Z,25.95
2023-05-26T06:15:03.824Z,31.52
2023-05-26T06:17:31.626Z,52.08
2023-05-26T06:19:59.048Z,37.67
2023-05-26T06:22:26.214Z,40.05
2023-05-26T06:24:53.407Z,27.25
2023-05-26T06:27:20.564Z,28.08
2023-05-26T06:29:47.771Z,34.60
2023-05-26T06:32:15.040Z,25.52
2023-05-26T06:34:42.222Z,25.75
2023-05-26T06:37:09.489Z,21.38
2023-05-26T06:39:36.651Z,26.08
2023-05-26T06:42:04.110Z,29.15
2023-05-26T06:44:31.279Z,34.65
2023-05-26T06:46:58.469Z,29.65
2023-05-26T06:49:25.596Z,40.72
2023-05-26T06:51:52.866Z,25.83
2023-05-26T06:54:19.996Z,19.20
2023-05-26T06:56:47.179Z,33.30
2023-05-26T06:59:14.326Z,28.02
2023-05-26T07:01:41.645Z,31.88
2023-05-26T07:04:08.964Z,24.02
2023-05-26T07:06:46.761Z,29.58
2023-05-26T07:09:14.876Z,26.20
2023-05-26T07:11:42.085Z,29.65
2023-05-26T07:14:09.354Z,30.20
2023-05-26T07:16:36.559Z,19.40
2023-05-26T07:19:03.777Z,23.05
2023-05-26T07:21:32.154Z,20.73
2023-05-26T07:23:59.590Z,26.95
2023-05-26T07:26:26.749Z,22.33
2023-05-26T07:28:54.400Z,25.65
2023-05-26T07:31:22.546Z,29.38
2023-05-26T07:33:51.173Z,29.52
2023-05-26T07:36:18.463Z,28.52
2023-05-26T07:38:45.886Z,29.50
2023-05-26T07:41:13.074Z,33.55
2023-05-26T07:43:40.367Z,30.17
2023-05-26T07:46:07.595Z,19.48
2023-05-26T07:48:34.899Z,29.83
2023-05-26T07:51:02.032Z,26.77
2023-05-26T07:53:29.181Z,19.27
2023-05-26T07:55:56.339Z,25.83
2023-05-26T07:58:23.464Z,28.92
2023-05-26T08:00:50.609Z,24.98
2023-05-26T08:03:18.020Z,16.40
2023-05-26T08:05:45.736Z,26.42
2023-05-26T08:08:13.062Z,21.17
2023-05-26T08:10:40.329Z,22.42
2023-05-26T08:13:07.500Z,23.48
2023-05-26T08:15:35.657Z,25.08
2023-05-26T08:18:03.156Z,21.63
2023-05-26T08:20:30.542Z,28.17
2023-05-26T08:22:59.506Z,27.63
2023-05-26T08:25:27.389Z,24.65
2023-05-26T08:27:54.627Z,18.70
2023-05-26T08:30:21.780Z,21.15
2023-05-26T08:32:49.253Z,18.73
2023-05-26T08:35:16.402Z,17.35
2023-05-26T08:37:43.822Z,23.80
2023-05-26T08:40:12.834Z,20.33
2023-05-26T08:42:45.741Z,21.30
2023-05-26T08:45:13.771Z,24.60
2023-05-26T08:47:43.790Z,20.60
2023-05-26T08:50:12.186Z,20.75
2023-05-26T08:52:45.617Z,23.67
2023-05-26T08:55:18.266Z,27.67
2023-05-26T08:57:45.930Z,24.92
2023-05-26T09:00:13.972Z,21.08
2023-05-26T09:02:41.434Z,26.65
2023-05-26T09:05:09.518Z,22.80
2023-05-26T09:07:36.734Z,20.75
2023-05-26T09:10:22.799Z,21.40
2023-05-26T09:12:49.959Z,23.40
2023-05-26T09:15:21.431Z,17.15
2023-05-26T09:17:49.549Z,15.85
2023-05-26T09:20:16.963Z,20.88
2023-05-26T09:22:45.523Z,19.38
2023-05-26T09:25:12.796Z,18.90
2023-05-26T09:27:39.946Z,17.25
2023-05-26T09:30:07.795Z,15.85
2023-05-26T09:32:36.052Z,14.55
2023-05-26T09:35:04.416Z,20.60
2023-05-26T09:37:33.250Z,21.77
2023-05-26T09:40:15.710Z,16.58
2023-05-26T09:42:53.068Z,18.77
2023-05-26T09:45:20.651Z,17.83
2023-05-26T09:47:56.513Z,24.05
2023-05-26T09:50:25.333Z,17.17
2023-05-26T09:52:52.537Z,19.45
2023-05-26T09:55:19.849Z,16.08
2023-05-26T09:57:47.478Z,24.65
2023-05-26T10:00:17.434Z,19.90
2023-05-26T10:02:46.522Z,16.75
2023-05-26T10:05:15.034Z,22.42
2023-05-26T10:07:43.189Z,14.57
2023-05-26T10:10:14.773Z,15.50
2023-05-26T10:12:43.234Z,15.48
2023-05-26T10:15:11.211Z,14.50
2023-05-26T10:17:40.345Z,14.15
2023-05-26T10:20:09.776Z,17.30
2023-05-26T10:22:51.698Z,16.38
2023-05-26T10:25:27.376Z,11.70
2023-05-26T10:28:00.308Z,11.85
2023-05-26T10:30:28.118Z,13.18
2023-05-26T10:33:09.521Z,14.07
2023-05-26T10:35:36.946Z,13.77
2023-05-26T10:38:04.131Z,13.25
2023-05-26T10:40:31.292Z,17.83
2023-05-26T10:43:03.569Z,18.45
2023-05-26T10:45:32.645Z,13.63
2023-05-26T10:48:12.460Z,17.50
2023-05-26T10:50:59.377Z,17.02
2023-05-26T10:53:31.370Z,10.77
2023-05-26T10:56:00.276Z,15.02
2023-05-26T10:58:34.560Z,13.52
2023-05-26T11:01:04.308Z,17.50
2023-05-26T11:03:45.553Z,14.90
2023-05-26T11:06:15.400Z,13.25
2023-05-26T11:08:46.391Z,16.20
2023-05-26T11:11:18.362Z,16.35
2023-05-26T11:13:47.683Z,18.20
2023-05-26T11:16:18.792Z,15.75
2023-05-26T11:18:53.904Z,12.73
2023-05-26T11:21:28.276Z,14.18
2023-05-26T11:23:57.462Z,13.00
2023-05-26T11:26:26.468Z,11.75
2023-05-26T11:28:54.061Z,11.00
2023-05-26T11:31:26.880Z,12.18
2023-05-26T11:33:55.705Z,9.02
2023-05-26T11:36:23.431Z,18.50
2023-05-26T11:38:57.880Z,10.88
2023-05-26T11:41:28.497Z,14.75
2023-05-26T11:43:57.342Z,10.77
2023-05-26T11:46:28.590Z,7.65
2023-05-26T11:48:56.043Z,11.50
2023-05-26T11:51:23.303Z,9.50
2023-05-26T11:53:57.665Z,9.98
2023-05-26T11:56:36.541Z,14.75
2023-05-26T11:59:05.064Z,11.65
2023-05-26T12:01:33.589Z,15.93
2023-05-26T12:04:01.955Z,16.13
2023-05-26T12:06:30.714Z,12.98
2023-05-26T12:09:05.119Z,13.32
2023-05-26T12:11:34.323Z,15.18
2023-05-26T12:14:12.464Z,9.18
2023-05-26T12:16:43.266Z,9.35
2023-05-26T12:19:12.504Z,9.85
2023-05-26T12:21:42.065Z,9.18
2023-05-26T12:24:09.813Z,16.10
2023-05-26T12:26:37.342Z,16.75
2023-05-26T12:29:08.172Z,11.40
2023-05-26T12:31:39.210Z,8.98
2023-05-26T12:34:07.650Z,7.03
2023-05-26T12:36:35.194Z,9.23
2023-05-26T12:39:02.426Z,8.50
2023-05-26T12:41:29.689Z,9.80
2023-05-26T12:43:56.835Z,13.10
2023-05-26T12:46:25.396Z,9.10
2023-05-26T12:48:53.898Z,9.73
2023-05-26T12:51:22.156Z,10.15
2023-05-26T12:53:49.386Z,7.68
2023-05-26T12:56:17.325Z,7.13
2023-05-26T12:58:44.644Z,11.38
2023-05-26T13:01:12.475Z,13.43
2023-05-26T13:03:41.888Z,14.15
2023-05-26T13:06:10.090Z,6.75
2023-05-26T13:08:37.399Z,6.55
2023-05-26T13:11:04.647Z,8.70
2023-05-26T13:13:32.278Z,12.02
2023-05-26T13:16:03.020Z,10.43
2023-05-26T13:21:01.232Z,9.45
2023-05-26T13:23:28.384Z,10.57
2023-05-26T13:25:55.610Z,10.90
2023-05-26T13:28:23.928Z,13.65
2023-05-26T13:30:51.166Z,12.15
2023-05-26T13:33:18.429Z,8.10
2023-05-26T13:35:45.752Z,9.48
2023-05-26T13:38:12.946Z,8.32
2023-05-26T13:40:40.958Z,13.63
2023-05-26T13:43:09.487Z,10.65
2023-05-26T13:45:37.080Z,11.75
2023-05-26T13:48:05.478Z,13.98
2023-05-26T13:50:32.742Z,9.70
2023-05-26T13:52:59.865Z,9.98
2023-05-26T13:55:27.350Z,11.68
2023-05-26T13:57:54.773Z,9.98
2023-05-26T14:00:22.008Z,9.77
2023-05-26T14:02:51.099Z,14.88
2023-05-26T14:05:19.876Z,9.02
2023-05-26T14:07:47.232Z,10.52
2023-05-26T14:10:15.910Z,10.23
2023-05-26T14:12:43.352Z,10.50
2023-05-26T14:15:11.210Z,9.95
2023-05-26T14:17:38.660Z,10.85
2023-05-26T14:20:08.009Z,12.32
2023-05-26T14:22:38.322Z,17.35
2023-05-26T14:25:06.140Z,13.60
2023-05-26T14:27:33.461Z,11.63
2023-05-26T14:30:00.757Z,8.65
2023-05-26T14:32:27.962Z,10.40
2023-05-26T14:34:55.264Z,7.35
2023-05-26T14:37:22.560Z,8.98
2023-05-26T14:39:49.742Z,6.57
2023-05-26T14:42:17.076Z,12.73
2023-05-26T14:44:44.261Z,12.63
2023-05-26T14:47:11.549Z,10.45
2023-05-26T14:49:38.708Z,13.30
2023-05-26T14:52:06.464Z,9.23
2023-05-26T14:54:33.800Z,11.48
2023-05-26T14:57:01.609Z,10.80
2023-05-26T14:59:28.918Z,11.00
2023-05-26T15:01:56.214Z,11.10
2023-05-26T15:04:23.464Z,10.13
2023-05-26T15:06:51.472Z,12.40
2023-05-26T15:09:18.672Z,12.45
2023-05-26T15:11:46.061Z,12.80
2023-05-26T15:14:13.297Z,11.93
2023-05-26T15:16:40.635Z,14.00
2023-05-26T15:19:07.964Z,16.40
2023-05-26T15:21:38.723Z,15.20
2023-05-26T15:24:08.035Z,17.70
2023-05-26T15:26:35.894Z,16.60
2023-05-26T15:29:03.149Z,16.35
2023-05-26T15:31:30.463Z,16.90
2023-05-26T15:33:57.711Z,17.55
2023-05-26T15:36:25.963Z,18.38
2023-05-26T15:38:57.839Z,19.13
2023-05-26T15:41:29.048Z,18.17
2023-05-26T15:43:57.045Z,16.77
2023-05-26T15:46:24.233Z,16.95
2023-05-26T15:48:51.568Z,15.88
2023-05-26T15:51:18.782Z,15.85
2023-05-26T15:53:46.029Z,19.00
2023-05-26T15:56:13.242Z,15.27
2023-05-26T15:58:40.827Z,14.65
2023-05-26T16:01:08.481Z,15.52
2023-05-26T16:03:39.121Z,13.30
2023-05-26T16:06:08.112Z,12.35
2023-05-26T16:08:37.779Z,17.70
2023-05-26T16:11:05.237Z,10.85
2023-05-26T16:13:33.530Z,11.50
2023-05-26T16:16:00.785Z,10.55
2023-05-26T16:18:28.081Z,11.60
2023-05-26T16:20:55.386Z,12.32
2023-05-26T16:23:22.921Z,13.05
2023-05-26T16:25:52.725Z,9.93
2023-05-26T16:28:20.796Z,14.95
2023-05-26T16:30:48.420Z,9.15
2023-05-26T16:33:17.394Z,15.60
2023-05-26T16:35:47.156Z,16.17
2023-05-26T16:38:14.391Z,13.80
2023-05-26T16:40:41.619Z,14.63
2023-05-26T16:43:11.676Z,11.75
2023-05-26T16:45:38.926Z,15.13
2023-05-26T16:48:06.278Z,18.23
2023-05-26T16:50:33.476Z,14.30
2023-05-26T16:53:00.716Z,13.57
2023-05-26T16:55:27.863Z,11.85
2023-05-26T16:57:55.068Z,13.82
2023-05-26T17:00:22.331Z,13.73
2023-05-26T17:02:49.607Z,21.98
2023-05-26T17:05:17.169Z,15.05
2023-05-26T17:07:44.468Z,17.10
2023-05-26T17:10:11.813Z,12.10
2023-05-26T17:12:39.121Z,16.88
2023-05-26T17:15:07.852Z,14.85
2023-05-26T17:17:35.217Z,12.95
2023-05-26T17:20:03.208Z,12.98
2023-05-26T17:22:30.798Z,13.93
2023-05-26T17:24:58.100Z,12.02
2023-05-26T17:27:25.412Z,15.25
2023-05-26T17:29:52.675Z,15.55
2023-05-26T17:32:20.009Z,14.52
2023-05-26T17:34:47.841Z,13.07
2023-05-26T17:37:15.297Z,15.95
2023-05-26T17:39:43.228Z,10.93
2023-05-26T17:42:10.841Z,14.48
2023-05-26T17:44:38.109Z,18.13
2023-05-26T17:47:06.023Z,12.55
2023-05-26T17:49:33.525Z,21.13
2023-05-26T17:52:00.997Z,15.63
2023-05-26T17:54:29.943Z,13.98
2023-05-26T17:56:57.934Z,14.95
2023-05-26T17:59:25.781Z,12.05
2023-05-26T18:01:53.368Z,13.38
2023-05-26T18:04:20.969Z,14.77
2023-05-26T18:06:48.307Z,16.38
2023-05-26T18:09:16.910Z,12.18
2023-05-26T18:11:45.213Z,15.80
2023-05-26T18:14:13.024Z,13.50
2023-05-26T18:16:40.997Z,12.65
2023-05-26T18:19:08.753Z,11.55
2023-05-26T18:21:39.190Z,18.15
2023-05-26T18:24:06.921Z,16.33
2023-05-26T18:26:34.424Z,24.58
2023-05-26T18:29:01.815Z,13.13
2023-05-26T18:31:30.038Z,18.63
2023-05-26T18:34:00.443Z,20.77
2023-05-26T18:36:32.752Z,16.15
2023-05-26T18:39:00.041Z,17.75
2023-05-26T18:41:27.636Z,14.55
2023-05-26T18:43:54.878Z,19.50
2023-05-26T18:46:22.300Z,19.77
2023-05-26T18:48:49.546Z,12.65
2023-05-26T18:51:17.771Z,12.00
2023-05-26T18:53:44.976Z,16.88
2023-05-26T18:56:12.838Z,14.40
2023-05-26T18:58:40.154Z,18.90
2023-05-26T19:01:07.500Z,15.75
2023-05-26T19:03:36.301Z,19.27
2023-05-26T19:06:03.666Z,14.52
2023-05-26T19:08:30.913Z,12.30
2023-05-26T19:10:59.496Z,17.58
2023-05-26T19:13:26.827Z,13.88
2023-05-26T19:15:54.170Z,17.90
2023-05-26T19:18:22.587Z,19.08
2023-05-26T19:20:50.168Z,14.90
2023-05-26T19:23:17.449Z,15.10
2023-05-26T19:25:44.650Z,16.83
2023-05-26T19:28:17.206Z,16.27
2023-05-26T19:30:46.029Z,21.83
2023-05-26T19:33:13.488Z,13.90
2023-05-26T19:35:40.711Z,13.80
2023-05-26T19:38:07.915Z,16.15
2023-05-26T19:40:36.413Z,11.10
2023-05-26T19:43:03.730Z,20.23
2023-05-26T19:45:31.192Z,16.00
2023-05-26T19:47:58.575Z,15.45
2023-05-26T19:50:25.999Z,16.80
2023-05-26T19:52:54.629Z,11.57
2023-05-26T19:55:22.837Z,14.55
2023-05-26T19:57:50.183Z,15.18
2023-05-26T20:00:17.535Z,14.00
2023-05-26T20:02:44.902Z,15.13
2023-05-26T20:05:12.174Z,13.27
2023-05-26T20:07:39.420Z,15.10
2023-05-26T20:10:06.818Z,53.70
2023-05-26T20:12:34.143Z,62.08
2023-05-26T20:15:01.737Z,18.77
2023-05-26T20:17:28.947Z,15.30
2023-05-26T20:20:11.651Z,13.15
2023-05-26T20:22:40.674Z,25.67
2023-05-26T20:25:08.482Z,18.10
2023-05-26T20:27:38.994Z,17.23
2023-05-26T20:30:07.746Z,14.63
2023-05-26T20:32:35.837Z,17.17
2023-05-26T20:35:03.814Z,20.08
2023-05-26T20:37:31.536Z,12.55
2023-05-26T20:39:59.797Z,15.65
2023-05-26T20:42:30.859Z,17.73
2023-05-26T20:44:58.184Z,13.68
2023-05-26T20:47:26.124Z,13.85
2023-05-26T20:49:53.589Z,18.15
2023-05-26T20:52:21.592Z,16.05
2023-05-26T20:54:48.799Z,16.20
2023-05-26T20:57:16.114Z,14.95
2023-05-26T20:59:43.534Z,16.77
2023-05-26T21:02:11.006Z,24.08
2023-05-26T21:04:38.304Z,18.40
2023-05-26T21:07:05.480Z,17.67
2023-05-26T21:09:32.965Z,15.75
2023-05-26T21:12:00.222Z,11.73
2023-05-26T21:14:27.801Z,19.02
2023-05-26T21:16:55.123Z,14.15
2023-05-26T21:19:22.446Z,19.95
2023-05-26T21:21:51.081Z,21.90
2023-05-26T21:24:18.518Z,17.48
2023-05-26T21:26:45.951Z,17.05
2023-05-26T21:29:13.386Z,20.75
2023-05-26T21:31:40.828Z,18.73
2023-05-26T21:34:08.180Z,14.70
2023-05-26T21:36:36.683Z,23.95
2023-05-26T21:39:05.124Z,12.88
2023-05-26T21:41:32.602Z,17.20
2023-05-26T21:43:59.825Z,18.25
2023-05-26T21:46:27.107Z,11.20
2023-05-26T21:48:54.597Z,11.57
2023-05-26T21:51:21.839Z,21.33
2023-05-26T21:53:49.075Z,14.70
2023-05-26T21:56:16.335Z,13.50
2023-05-26T21:58:44.838Z,24.00
2023-05-26T22:01:12.468Z,20.40
2023-05-26T22:03:39.860Z,14.02
2023-05-26T22:06:08.517Z,16.75
2023-05-26T22:08:35.793Z,15.13
2023-05-26T22:11:02.976Z,19.55
2023-05-26T22:13:30.798Z,14.30
2023-05-26T22:15:58.298Z,14.32
2023-05-26T22:18:26.019Z,14.27
2023-05-26T22:20:53.173Z,15.18
2023-05-26T22:23:20.370Z,15.40
2023-05-26T22:25:47.642Z,18.15
2023-05-26T22:28:14.949Z,14.93
2023-05-26T22:30:42.166Z,11.90
2023-05-26T22:33:09.401Z,10.88
2023-05-26T22:35:36.677Z,16.50
2023-05-26T22:38:03.911Z,12.38
2023-05-26T22:40:31.147Z,15.02
2023-05-26T22:42:58.301Z,16.48
2023-05-26T22:45:25.596Z,19.33
2023-05-26T22:47:52.814Z,12.10
2023-05-26T22:50:22.103Z,19.25
2023-05-26T22:52:49.306Z,12.25
2023-05-26T22:55:16.434Z,15.90
2023-05-26T22:57:43.757Z,17.58
2023-05-26T23:00:11.496Z,17.63
2023-05-26T23:02:38.798Z,14.68
2023-05-26T23:05:07.149Z,12.82
2023-05-26T23:07:35.930Z,14.73
2023-05-26T23:10:04.107Z,11.75
2023-05-26T23:12:31.246Z,15.82
2023-05-26T23:14:58.532Z,14.30
2023-05-26T23:17:25.792Z,11.63
2023-05-26T23:19:53.020Z,15.95
2023-05-26T23:22:20.266Z,12.80
2023-05-26T23:24:47.463Z,12.60
2023-05-26T23:27:14.650Z,15.18
2023-05-26T23:29:41.935Z,18.67
2023-05-26T23:32:09.163Z,11.07
2023-05-26T23:34:36.363Z,16.88
2023-05-26T23:37:03.618Z,19.65
2023-05-26T23:39:30.936Z,19.65
2023-05-26T23:41:58.089Z,16.70
2023-05-26T23:44:25.345Z,16.08
2023-05-26T23:46:52.603Z,16.75
2023-05-26T23:49:20.085Z,13.38
2023-05-26T23:51:47.254Z,14.20
2023-05-26T23:54:14.429Z,20.17
2023-05-26T23:56:41.607Z,14.40
2023-05-26T23:59:08.842Z,13.70
